createdAt,value
2023-03-22T09:58:14.411Z,99415.31
2023-03-22T10:00:50.749Z,99415.12
2023-03-22T10:03:26.324Z,99410.87
2023-03-22T10:05:59.242Z,99409.27
2023-03-22T10:08:47.362Z,99408.31
2023-03-22T10:11:19.123Z,99409.03
2023-03-22T10:14:02.116Z,99401.95
2023-03-22T10:16:32.797Z,99407.66
2023-03-22T10:19:06.893Z,99405.92
2023-03-22T10:21:38.771Z,99401.12
2023-03-22T10:24:17.319Z,99397.25
2023-03-22T10:26:47.739Z,99396.80
2023-03-22T10:29:44.702Z,99391.93
2023-03-22T10:32:20.194Z,99388.92
2023-03-22T10:34:47.084Z,99389.79
2023-03-22T10:37:19.977Z,99391.63
2023-03-22T10:39:54.450Z,99391.73
2023-03-22T10:42:26.033Z,99393.23
2023-03-22T10:44:59.052Z,99390.05
2023-03-22T10:47:32.410Z,99393.05
2023-03-22T10:50:01.542Z,99391.03
2023-03-22T10:52:32.684Z,99390.97
2023-03-22T10:55:03.002Z,99390.33
2023-03-22T10:57:31.672Z,99388.55
2023-03-22T10:59:59.335Z,99387.88
2023-03-22T11:02:31.779Z,99386.38
2023-03-22T11:05:02.718Z,99381.20
2023-03-22T11:07:39.195Z,99377.70
2023-03-22T11:10:09.092Z,99374.95
2023-03-22T11:13:08.260Z,99374.66
2023-03-22T11:15:49.043Z,99374.77
2023-03-22T11:18:15.836Z,99373.61
2023-03-22T11:20:53.809Z,99372.86
2023-03-22T11:23:20.580Z,99370.75
2023-03-22T11:25:48.341Z,99375.07
2023-03-22T11:28:19.695Z,99377.44
2023-03-22T11:31:07.943Z,99376.20
2023-03-22T11:33:36.302Z,99374.96
2023-03-22T11:36:15.769Z,99368.20
2023-03-22T11:38:43.839Z,99367.35
2023-03-22T11:41:27.263Z,99362.86
2023-03-22T11:44:02.172Z,99361.02
2023-03-22T11:46:29.603Z,99359.63
2023-03-22T11:49:00.837Z,99361.59
2023-03-22T11:51:34.621Z,99354.96
2023-03-22T11:54:07.154Z,99354.86
2023-03-22T11:56:34.325Z,99352.80
2023-03-22T11:59:09.402Z,99352.30
2023-03-22T12:01:46.528Z,99350.27
2023-03-22T12:04:15.564Z,99346.75
2023-03-22T12:06:44.106Z,99345.09
2023-03-22T12:09:46.080Z,99347.39
2023-03-22T12:12:23.887Z,99345.05
2023-03-22T12:14:51.295Z,99346.49
2023-03-22T12:17:29.865Z,99349.67
2023-03-22T12:20:06.709Z,99351.04
2023-03-22T12:22:42.818Z,99348.02
2023-03-22T12:25:17.665Z,99343.09
2023-03-22T12:27:48.146Z,99346.25
2023-03-22T12:30:20.944Z,99344.40
2023-03-22T12:33:09.326Z,99342.95
2023-03-22T12:35:38.679Z,99341.52
2023-03-22T12:38:29.711Z,99340.09
2023-03-22T12:40:57.399Z,99337.23
2023-03-22T12:43:39.544Z,99339.83
2023-03-22T12:46:06.673Z,99339.86
2023-03-22T12:48:46.629Z,99335.69
2023-03-22T12:51:20.340Z,99330.87
2023-03-22T12:53:50.225Z,99331.52
2023-03-22T12:56:32.364Z,99332.15
2023-03-22T12:59:05.977Z,99329.64
2023-03-22T13:01:39.463Z,99330.76
2023-03-22T13:04:25.181Z,99329.59
2023-03-22T13:06:53.041Z,99325.33
2023-03-22T13:09:39.858Z,99322.34
2023-03-22T13:12:16.797Z,99324.73
2023-03-22T13:14:52.277Z,99322.39
2023-03-22T13:17:21.969Z,99319.14
2023-03-22T13:20:07.477Z,99318.10
2023-03-22T13:22:36.136Z,99317.15
2023-03-22T13:25:10.318Z,99321.90
2023-03-22T13:27:58.514Z,99325.08
2023-03-22T13:30:55.100Z,99322.36
2023-03-22T13:33:34.189Z,99325.60
2023-03-22T13:36:24.420Z,99326.86
2023-03-22T13:38:55.673Z,99325.59
2023-03-22T13:41:34.864Z,99322.22
2023-03-22T13:44:04.305Z,99325.11
2023-03-22T13:46:35.360Z,99319.73
2023-03-22T13:49:02.180Z,99315.39
2023-03-22T13:51:31.360Z,99314.33
2023-03-22T13:54:12.900Z,99315.86
2023-03-22T13:57:03.167Z,99317.23
2023-03-22T13:59:33.064Z,99312.96
2023-03-22T14:02:21.398Z,99313.56
2023-03-22T14:05:15.858Z,99311.91
2023-03-22T14:07:51.832Z,99314.73
2023-03-22T14:10:24.227Z,99310.34
2023-03-22T14:12:51.571Z,99309.70
2023-03-22T14:15:31.050Z,99308.65
2023-03-22T14:18:20.892Z,99304.65
2023-03-22T14:20:50.361Z,99302.94
